Crescent Springs, Kentucky
Current Conditions -  °F | °C
As of 11:14 PM on Tuesday 21 Oct 2014 (Local Time) from KI69 Reporting Station
Overcast Overcast  
Wind Chill: 44°   Ceiling: 4400
Heat Index: 48°   Visibility: 10mi
Dew Point: 41°   Wind: 10mph
Humidity: 76%   Direction: 30°NNE
Pressure: 30.18"   Gusts: NA
Location:  39.0279°N, 84.5635°W
Report Text: KI69 220314Z AUTO 03009KT 10SM OVC044 09/05 A3018 RMK AO1
Loading
Personal Weather Stations






























Interactive Weather Map
Tropical Storm Tracking
New forecast layout! Learn more

10-Day Weather Forecast

Advertisements
Track Severe Weather on mobile